Time;durP1;ratioP1;P1;durP2;ratioP2;P2;SDS_P1;SDS_P2;PMS_P1;PMS_P2;Temp;Humidity;BMP_temperature;BMP_pressure;BME280_temperature;BME280_humidity;BME280_pressure;Samples;Min_cycle;Max_cycle;Signal;HPM_P1;HPM_P2
2021/07/31 00:02:21;;;;;;;14.13;4.25;;;;;;;14.87;100.00;100150.59;5002280;28;20034;-64
2021/07/31 00:04:50;;;;;;;13.27;3.60;;;;;;;14.82;100.00;100150.44;4999928;28;20042;-64
2021/07/31 00:07:18;;;;;;;12.95;3.50;;;;;;;14.79;100.00;100157.84;5000092;28;20037;-64
2021/07/31 00:09:47;;;;;;;14.38;4.22;;;;;;;14.88;100.00;100161.16;4998945;28;20417;-64
2021/07/31 00:12:15;;;;;;;15.70;3.70;;;;;;;14.94;100.00;100151.44;5003950;28;20311;-64
2021/07/31 00:14:43;;;;;;;7.80;2.85;;;;;;;14.99;100.00;100165.09;5000037;28;20400;-63
2021/07/31 00:17:11;;;;;;;11.48;3.63;;;;;;;14.92;100.00;100156.19;4997362;28;20038;-63
2021/07/31 00:19:39;;;;;;;9.82;3.55;;;;;;;15.02;100.00;100166.53;4995184;28;20042;-63
2021/07/31 00:22:07;;;;;;;11.05;4.10;;;;;;;15.00;100.00;100163.22;5001432;28;20338;-64
2021/07/31 00:24:35;;;;;;;12.45;2.95;;;;;;;15.00;100.00;100165.91;4997635;28;20442;-63
2021/07/31 00:27:05;;;;;;;13.48;4.55;;;;;;;14.92;100.00;100158.88;5002776;28;20397;-63
2021/07/31 00:29:33;;;;;;;11.13;3.67;;;;;;;14.90;100.00;100169.00;4995902;28;20413;-63
2021/07/31 00:32:01;;;;;;;6.60;2.88;;;;;;;14.95;100.00;100169.22;5002344;28;20166;-63
2021/07/31 00:34:28;;;;;;;11.18;3.58;;;;;;;15.02;100.00;100159.28;5000349;28;20327;-64
2021/07/31 00:36:56;;;;;;;9.95;3.20;;;;;;;14.97;100.00;100159.09;4999638;28;20049;-63
2021/07/31 00:39:24;;;;;;;8.55;3.10;;;;;;;15.07;100.00;100167.56;4995125;28;20250;-63
2021/07/31 00:41:53;;;;;;;10.45;3.28;;;;;;;15.02;100.00;100164.66;5004006;28;20053;-63
2021/07/31 00:44:22;;;;;;;11.82;3.63;;;;;;;15.06;100.00;100165.91;4997334;28;20046;-63
2021/07/31 00:46:50;;;;;;;7.50;3.17;;;;;;;14.94;100.00;100164.88;5002457;28;20042;-64
2021/07/31 00:49:18;;;;;;;11.38;3.47;;;;;;;14.85;100.00;100168.81;4996854;28;20458;-64
2021/07/31 00:51:46;;;;;;;12.68;3.92;;;;;;;14.83;100.00;100177.09;5000957;28;20358;-64
2021/07/31 00:54:14;;;;;;;9.10;3.10;;;;;;;14.70;100.00;100167.16;4995993;28;20445;-64
2021/07/31 00:56:42;;;;;;;10.45;3.47;;;;;;;14.58;100.00;100166.09;4996610;28;20524;-64
2021/07/31 00:59:10;;;;;;;9.90;3.63;;;;;;;14.51;100.00;100170.63;4997158;28;20108;-63
2021/07/31 01:01:42;;;;;;;15.90;5.05;;;;;;;14.45;100.00;100175.78;4998381;28;20042;-63
2021/07/31 01:04:10;;;;;;;10.18;3.95;;;;;;;14.49;100.00;100172.69;5001577;28;20053;-63
2021/07/31 01:06:38;;;;;;;7.95;3.65;;;;;;;14.42;100.00;100181.56;5001670;28;20042;-63
2021/07/31 01:09:06;;;;;;;9.77;3.78;;;;;;;14.40;100.00;100186.31;4995653;28;20096;-64
2021/07/31 01:11:35;;;;;;;8.00;4.22;;;;;;;14.33;100.00;100174.75;4999775;28;20131;-64
2021/07/31 01:14:03;;;;;;;11.10;4.40;;;;;;;14.39;100.00;100186.53;4997349;28;20054;-64
2021/07/31 01:16:31;;;;;;;17.08;4.15;;;;;;;14.45;100.00;100186.53;4999410;28;20489;-63
2021/07/31 01:19:00;;;;;;;12.43;3.58;;;;;;;14.46;100.00;100182.81;4995330;28;20453;-64
2021/07/31 01:21:40;;;;;;;9.68;4.55;;;;;;;14.40;100.00;100182.78;5001445;28;20427;-63
2021/07/31 01:24:10;;;;;;;9.75;3.78;;;;;;;14.46;100.00;100185.50;5002330;28;20422;-63
2021/07/31 01:26:40;;;;;;;10.88;4.63;;;;;;;14.45;100.00;100181.16;5001915;28;20120;-64
2021/07/31 01:29:09;;;;;;;8.60;3.90;;;;;;;14.49;100.00;100176.22;5004444;28;20041;-64
2021/07/31 01:31:38;;;;;;;14.45;4.25;;;;;;;14.46;100.00;100185.50;5006019;28;20092;-63
2021/07/31 01:34:06;;;;;;;8.65;3.90;;;;;;;14.60;100.00;100185.50;5003407;28;20049;-64
2021/07/31 01:36:34;;;;;;;5.30;3.13;;;;;;;14.61;100.00;100192.53;5003975;28;20042;-63
2021/07/31 01:39:03;;;;;;;10.98;4.00;;;;;;;14.63;100.00;100190.53;5000417;28;20050;-63
2021/07/31 01:41:32;;;;;;;10.82;4.22;;;;;;;14.64;100.00;100189.47;5000932;28;20049;-63
2021/07/31 01:44:00;;;;;;;12.23;5.60;;;;;;;14.71;100.00;100189.50;5001602;28;20131;-64
2021/07/31 01:46:27;;;;;;;8.45;4.07;;;;;;;14.62;100.00;100178.94;5002168;28;20049;-63
2021/07/31 01:48:55;;;;;;;7.20;3.25;;;;;;;14.51;100.00;100186.75;5001062;28;20046;-63
2021/07/31 01:51:23;;;;;;;11.07;3.53;;;;;;;14.43;100.00;100182.38;5001798;28;20269;-63
2021/07/31 01:53:51;;;;;;;8.00;3.10;;;;;;;14.45;100.00;100183.03;5000797;28;20353;-63
2021/07/31 01:56:20;;;;;;;9.13;2.80;;;;;;;14.43;100.00;100185.06;5002292;28;20113;-63
2021/07/31 01:58:48;;;;;;;6.18;2.83;;;;;;;14.50;100.00;100185.09;4999551;28;20054;-63
2021/07/31 02:01:16;;;;;;;6.72;3.40;;;;;;;14.52;100.00;100186.53;5007337;28;20397;-63
2021/07/31 02:03:44;;;;;;;8.85;3.55;;;;;;;14.45;100.00;100183.84;5001432;28;20331;-63
2021/07/31 02:06:12;;;;;;;8.10;3.03;;;;;;;14.52;100.00;100199.16;5006178;28;20433;-64
2021/07/31 02:08:40;;;;;;;8.27;3.17;;;;;;;14.49;100.00;100196.84;4999200;28;20054;-63
2021/07/31 02:11:10;;;;;;;11.18;3.03;;;;;;;14.45;100.00;100196.44;5001808;28;20056;-63
2021/07/31 02:13:39;;;;;;;3.88;2.78;;;;;;;14.46;100.00;100201.63;5001742;28;20464;-63
2021/07/31 02:16:07;;;;;;;7.32;3.00;;;;;;;14.47;100.00;100202.44;5000819;28;20057;-63
2021/07/31 02:18:35;;;;;;;6.82;2.65;;;;;;;14.46;100.00;100198.94;5002336;28;20073;-64
2021/07/31 02:21:03;;;;;;;9.10;3.38;;;;;;;14.44;100.00;100197.47;5000542;28;20278;-64
2021/07/31 02:23:31;;;;;;;7.47;3.92;;;;;;;14.39;100.00;100203.47;5002457;28;20054;-63
2021/07/31 02:25:59;;;;;;;5.00;3.40;;;;;;;14.25;100.00;100204.47;4999049;28;20073;-63
2021/07/31 02:28:26;;;;;;;8.13;4.22;;;;;;;14.27;100.00;100205.91;4998612;28;20038;-63
2021/07/31 02:30:56;;;;;;;8.75;3.40;;;;;;;14.16;100.00;100201.13;5004517;28;20049;-64
2021/07/31 02:33:24;;;;;;;11.90;3.67;;;;;;;14.15;100.00;100206.69;5001512;28;20584;-63
2021/07/31 02:35:51;;;;;;;10.18;4.28;;;;;;;14.06;100.00;100193.47;5003535;28;20385;-63
2021/07/31 02:38:19;;;;;;;11.15;3.78;;;;;;;13.96;100.00;100198.34;5000319;28;20374;-63
2021/07/31 02:40:48;;;;;;;9.70;4.28;;;;;;;13.87;100.00;100202.25;4998818;28;20450;-64
2021/07/31 02:43:15;;;;;;;15.15;4.82;;;;;;;13.85;100.00;100206.97;5000182;28;20050;-63
2021/07/31 02:45:43;;;;;;;10.13;3.67;;;;;;;13.93;100.00;100209.50;4999387;28;20519;-63
2021/07/31 02:48:14;;;;;;;8.82;4.28;;;;;;;13.86;100.00;100204.09;4999042;28;20038;-64
2021/07/31 02:50:42;;;;;;;11.68;3.55;;;;;;;13.81;100.00;100203.03;5000395;28;20316;-63
2021/07/31 02:53:10;;;;;;;9.35;4.60;;;;;;;13.70;100.00;100210.63;4997360;28;20045;-64
2021/07/31 02:55:38;;;;;;;15.82;4.10;;;;;;;13.63;100.00;100206.28;5001466;28;20037;-64
2021/07/31 02:58:06;;;;;;;10.32;3.85;;;;;;;13.67;100.00;100207.53;5000704;28;20330;-63
2021/07/31 03:00:34;;;;;;;9.90;3.72;;;;;;;13.72;100.00;100200.53;5002330;28;20046;-64
2021/07/31 03:03:02;;;;;;;17.23;4.40;;;;;;;13.76;100.00;100199.13;5003413;28;20527;-64
2021/07/31 03:05:31;;;;;;;7.38;3.63;;;;;;;13.73;100.00;100198.69;5001491;28;20107;-64
2021/07/31 03:07:59;;;;;;;9.50;3.75;;;;;;;13.70;100.00;100201.75;5015590;28;20038;-63
2021/07/31 03:10:27;;;;;;;9.55;4.13;;;;;;;13.72;100.00;100200.53;5001433;28;20057;-63
2021/07/31 03:12:55;;;;;;;11.82;3.75;;;;;;;13.67;100.00;100200.31;5002976;28;20058;-64
2021/07/31 03:15:23;;;;;;;15.27;4.28;;;;;;;13.72;100.00;100208.59;5001684;28;20068;-64
2021/07/31 03:17:51;;;;;;;10.82;3.80;;;;;;;13.77;100.00;100205.31;4999220;28;20101;-64
2021/07/31 03:20:19;;;;;;;10.05;3.80;;;;;;;13.81;100.00;100205.72;5000325;28;20046;-63
2021/07/31 03:22:48;;;;;;;9.65;3.38;;;;;;;13.73;100.00;100204.03;4999154;28;20311;-64
2021/07/31 03:25:16;;;;;;;8.90;3.55;;;;;;;13.68;100.00;100214.53;5000906;28;20448;-63
2021/07/31 03:27:44;;;;;;;9.93;4.55;;;;;;;13.73;100.00;100210.22;4996996;28;20046;-64
2021/07/31 03:30:13;;;;;;;12.50;3.63;;;;;;;13.71;100.00;100219.53;5003205;28;20444;-63
2021/07/31 03:32:41;;;;;;;8.02;4.13;;;;;;;13.84;100.00;100214.22;5001830;28;20042;-64
2021/07/31 03:35:09;;;;;;;16.40;4.38;;;;;;;13.82;100.00;100220.81;4995396;28;20046;-63
2021/07/31 03:37:37;;;;;;;11.65;4.40;;;;;;;13.89;100.00;100216.28;5002667;28;20104;-63
2021/07/31 03:40:08;;;;;;;11.55;3.72;;;;;;;13.85;100.00;100220.41;4996088;28;20042;-63
2021/07/31 03:42:37;;;;;;;11.15;4.00;;;;;;;13.81;100.00;100222.66;5000497;28;20438;-64
2021/07/31 03:45:06;;;;;;;12.25;4.28;;;;;;;13.90;100.00;100231.38;5000483;28;20042;-63
2021/07/31 03:47:34;;;;;;;11.43;3.95;;;;;;;13.91;100.00;100228.50;4998619;28;20042;-63
2021/07/31 03:50:02;;;;;;;8.02;3.88;;;;;;;13.93;100.00;100225.59;5000034;28;20334;-63
2021/07/31 03:52:30;;;;;;;7.03;3.78;;;;;;;13.91;100.00;100225.81;4999340;28;20125;-63
2021/07/31 03:54:58;;;;;;;9.82;3.90;;;;;;;13.89;100.00;100229.72;4996846;28;20100;-63
2021/07/31 03:57:32;;;;;;;13.88;3.40;;;;;;;13.84;100.00;100227.63;4997212;28;20049;-64
2021/07/31 04:00:00;;;;;;;8.70;3.70;;;;;;;13.83;100.00;100209.88;4996737;28;20049;-63
2021/07/31 04:02:28;;;;;;;8.30;4.32;;;;;;;13.73;100.00;100226.31;5002434;28;20045;-63
2021/07/31 04:04:57;;;;;;;15.70;5.22;;;;;;;13.76;100.00;100230.47;4999227;28;20050;-64
2021/07/31 04:07:25;;;;;;;9.00;4.70;;;;;;;13.75;100.00;100234.19;5001198;28;20045;-63
2021/07/31 04:09:53;;;;;;;11.55;4.63;;;;;;;13.76;100.00;100231.31;5010293;28;20382;-64
2021/07/31 04:12:21;;;;;;;10.80;4.93;;;;;;;13.77;100.00;100226.78;4998509;28;20081;-64
2021/07/31 04:14:50;;;;;;;12.63;4.13;;;;;;;13.93;100.00;100230.97;4998819;28;20045;-63
2021/07/31 04:17:18;;;;;;;8.32;4.18;;;;;;;13.86;100.00;100232.78;5000287;28;20042;-64
2021/07/31 04:19:46;;;;;;;11.45;4.97;;;;;;;13.98;100.00;100238.41;4997754;28;20053;-63
2021/07/31 04:22:14;;;;;;;7.60;4.05;;;;;;;13.89;100.00;100241.28;4999297;28;20092;-63
2021/07/31 04:24:42;;;;;;;9.90;6.07;;;;;;;13.98;100.00;100239.25;4995266;28;20050;-63
2021/07/31 04:27:10;;;;;;;13.50;6.13;;;;;;;13.98;100.00;100233.91;4999470;28;20103;-63
2021/07/31 04:29:38;;;;;;;13.48;4.90;;;;;;;13.99;100.00;100245.44;4995717;28;20092;-64
2021/07/31 04:32:08;;;;;;;13.05;5.22;;;;;;;14.04;100.00;100238.47;4999848;28;20426;-63
2021/07/31 04:34:36;;;;;;;15.27;5.43;;;;;;;14.10;100.00;100248.41;4998450;28;20042;-63
2021/07/31 04:37:05;;;;;;;17.30;5.88;;;;;;;14.11;100.00;100247.38;4997688;28;20350;-63
2021/07/31 04:39:33;;;;;;;11.10;5.05;;;;;;;14.07;100.00;100248.78;4997127;28;20034;-64
2021/07/31 04:42:01;;;;;;;17.40;6.80;;;;;;;14.10;100.00;100248.41;4999456;28;20092;-63
2021/07/31 04:44:29;;;;;;;17.42;5.78;;;;;;;14.21;100.00;100259.59;4998233;28;20052;-64
2021/07/31 04:46:57;;;;;;;10.55;5.13;;;;;;;14.27;100.00;100250.72;4996938;28;20069;-63
2021/07/31 04:49:26;;;;;;;13.15;5.43;;;;;;;14.44;100.00;100248.50;4995276;28;20245;-64
2021/07/31 04:51:54;;;;;;;17.10;5.95;;;;;;;14.67;100.00;100253.53;4999721;28;20064;-64
2021/07/31 04:54:22;;;;;;;13.20;5.75;;;;;;;14.68;100.00;100257.91;4997309;28;20113;-63
2021/07/31 04:56:50;;;;;;;11.48;4.57;;;;;;;14.82;100.00;100261.44;5005014;28;20168;-64
2021/07/31 04:59:18;;;;;;;10.15;4.72;;;;;;;14.88;100.00;100251.72;4997062;28;20038;-64
2021/07/31 05:01:46;;;;;;;10.18;4.90;;;;;;;14.71;100.00;100251.28;5001905;28;20361;-64
2021/07/31 05:04:15;;;;;;;6.20;4.32;;;;;;;14.78;100.00;100247.56;5000964;28;20033;-64
2021/07/31 05:06:44;;;;;;;10.95;4.97;;;;;;;14.76;100.00;100252.34;5000434;28;20278;-64
2021/07/31 05:09:12;;;;;;;12.30;5.78;;;;;;;14.65;100.00;100255.63;4993887;28;20350;-64
2021/07/31 05:11:40;;;;;;;16.95;6.25;;;;;;;14.49;100.00;100250.59;5003937;28;20046;-63
2021/07/31 05:14:08;;;;;;;13.05;5.00;;;;;;;14.61;100.00;100259.72;5003193;28;20049;-64
2021/07/31 05:16:36;;;;;;;17.55;5.40;;;;;;;14.64;100.00;100248.59;4999519;28;20070;-63
2021/07/31 05:19:04;;;;;;;15.35;4.78;;;;;;;14.91;100.00;100264.75;4997307;28;20119;-64
2021/07/31 05:21:36;;;;;;;8.85;4.68;;;;;;;14.93;100.00;100257.34;5003439;28;20365;-63
2021/07/31 05:24:05;;;;;;;16.13;5.45;;;;;;;14.95;100.00;100249.88;4998596;28;20046;-63
2021/07/31 05:26:33;;;;;;;11.20;5.65;;;;;;;14.95;100.00;100255.25;5004150;28;20050;-63
2021/07/31 05:29:01;;;;;;;11.43;5.55;;;;;;;15.05;100.00;100262.91;4995363;28;20500;-63
2021/07/31 05:31:29;;;;;;;13.40;4.90;;;;;;;15.07;100.00;100263.53;4998871;28;20456;-64
2021/07/31 05:33:57;;;;;;;11.45;5.63;;;;;;;14.94;100.00;100256.28;5001200;28;20037;-63
2021/07/31 05:36:25;;;;;;;15.00;6.57;;;;;;;14.86;100.00;100261.88;5002035;28;20049;-64
2021/07/31 05:38:53;;;;;;;13.80;5.72;;;;;;;14.80;100.00;100260.84;4993389;28;20041;-63
2021/07/31 05:41:22;;;;;;;11.52;5.60;;;;;;;14.85;100.00;100270.97;4999704;28;20046;-63
2021/07/31 05:43:50;;;;;;;9.30;4.82;;;;;;;14.87;100.00;100276.94;5002777;28;20050;-63
2021/07/31 05:46:19;;;;;;;14.65;5.72;;;;;;;15.16;100.00;100275.75;5003812;28;20049;-63
2021/07/31 05:48:47;;;;;;;9.15;5.20;;;;;;;15.30;100.00;100266.63;4999092;28;20035;-64
2021/07/31 05:51:15;;;;;;;13.27;4.55;;;;;;;15.37;100.00;100263.94;4998019;28;20119;-63
2021/07/31 05:53:44;;;;;;;15.40;5.32;;;;;;;15.44;100.00;100278.22;5004096;28;20433;-64
2021/07/31 05:56:12;;;;;;;13.52;4.60;;;;;;;15.55;100.00;100271.38;5000920;28;20054;-64
2021/07/31 05:58:41;;;;;;;10.75;4.03;;;;;;;16.10;100.00;100257.59;5000971;28;20106;-64
2021/07/31 06:01:10;;;;;;;8.45;4.38;;;;;;;16.47;100.00;100262.41;5003869;28;20053;-64
2021/07/31 06:03:38;;;;;;;8.80;3.72;;;;;;;16.91;100.00;100249.94;5002914;28;20457;-64
2021/07/31 06:06:07;;;;;;;9.15;3.30;;;;;;;16.84;100.00;100252.63;5003050;28;20330;-64
2021/07/31 06:08:34;;;;;;;10.75;3.63;;;;;;;16.09;100.00;100261.34;5000607;28;20303;-64
2021/07/31 06:11:04;;;;;;;9.18;4.10;;;;;;;15.95;100.00;100265.94;4998550;28;20097;-63
2021/07/31 06:13:33;;;;;;;9.98;3.72;;;;;;;16.17;100.00;100268.34;5003339;28;20381;-63
2021/07/31 06:16:02;;;;;;;12.68;4.38;;;;;;;15.46;100.00;100278.00;5003345;28;20042;-64
2021/07/31 06:18:30;;;;;;;12.77;4.95;;;;;;;15.60;100.00;100284.22;5000248;28;20061;-64
2021/07/31 06:20:58;;;;;;;9.27;4.47;;;;;;;16.66;100.00;100276.81;5000784;28;20041;-64
2021/07/31 06:23:25;;;;;;;6.38;3.47;;;;;;;16.58;100.00;100266.28;5001029;28;20042;-64
2021/07/31 06:26:00;;;;;;;9.88;4.22;;;;;;;16.94;100.00;100259.44;4993989;28;20053;-64
2021/07/31 06:28:28;;;;;;;10.27;4.70;;;;;;;17.17;100.00;100256.16;5002093;28;20052;-64
2021/07/31 06:30:57;;;;;;;8.43;4.53;;;;;;;16.81;100.00;100263.03;5002347;28;20033;-64
2021/07/31 06:33:26;;;;;;;6.50;3.80;;;;;;;18.15;100.00;100249.16;4999958;28;20363;-64
2021/07/31 06:35:54;;;;;;;8.73;4.15;;;;;;;16.75;100.00;100267.41;5001118;28;20050;-64
2021/07/31 06:38:22;;;;;;;10.63;4.28;;;;;;;17.69;100.00;100270.22;5001128;28;20056;-64
2021/07/31 06:40:50;;;;;;;12.77;4.32;;;;;;;17.39;100.00;100267.38;5002995;28;20041;-64
2021/07/31 06:43:18;;;;;;;11.40;4.78;;;;;;;15.93;100.00;100277.94;5001833;28;20054;-63
2021/07/31 06:45:46;;;;;;;10.48;4.68;;;;;;;16.58;100.00;100279.75;5000025;28;20054;-64
2021/07/31 06:48:14;;;;;;;7.07;3.65;;;;;;;17.16;100.00;100268.81;4999833;28;20409;-63
2021/07/31 06:50:43;;;;;;;13.95;4.45;;;;;;;17.41;100.00;100262.59;4996643;28;20045;-63
2021/07/31 06:53:11;;;;;;;10.63;4.53;;;;;;;17.44;100.00;100261.31;5000772;28;20466;-63
2021/07/31 06:55:39;;;;;;;7.10;3.67;;;;;;;17.54;100.00;100262.44;4997991;28;20377;-64
2021/07/31 06:58:07;;;;;;;9.32;4.20;;;;;;;17.95;100.00;100256.69;4996002;28;20339;-64
2021/07/31 07:00:37;;;;;;;7.07;4.35;;;;;;;18.49;100.00;100254.94;4996253;28;20378;-63
2021/07/31 07:03:06;;;;;;;7.13;4.13;;;;;;;17.58;100.00;100259.31;4993942;28;20042;-64
2021/07/31 07:05:34;;;;;;;7.78;3.60;;;;;;;17.68;100.00;100275.84;4997606;28;20038;-64
2021/07/31 07:08:05;;;;;;;6.55;3.83;;;;;;;17.34;100.00;100289.63;4996411;28;20089;-64
2021/07/31 07:10:33;;;;;;;8.63;3.58;;;;;;;17.68;100.00;100281.22;4995978;28;20046;-64
2021/07/31 07:13:01;;;;;;;7.70;3.97;;;;;;;17.97;100.00;100276.19;5000076;28;20046;-64
2021/07/31 07:15:29;;;;;;;11.60;3.55;;;;;;;17.32;100.00;100296.28;4996895;28;20057;-64
2021/07/31 07:17:59;;;;;;;5.90;3.65;;;;;;;16.55;100.00;100281.00;4996339;28;20057;-64
2021/07/31 07:20:27;;;;;;;8.18;3.50;;;;;;;17.72;100.00;100285.97;4992893;28;20323;-64
2021/07/31 07:22:54;;;;;;;8.30;3.47;;;;;;;17.19;100.00;100302.63;4997642;28;20042;-64
2021/07/31 07:25:24;;;;;;;7.25;3.47;;;;;;;17.90;100.00;100292.41;4996800;28;20041;-64
2021/07/31 07:27:52;;;;;;;5.68;3.22;;;;;;;17.99;100.00;100277.59;4996211;28;20694;-64
2021/07/31 07:30:20;;;;;;;6.15;3.42;;;;;;;17.10;100.00;100288.59;4995719;28;20045;-64
2021/07/31 07:32:48;;;;;;;8.65;3.72;;;;;;;16.65;100.00;100292.16;4996161;28;20054;-64
2021/07/31 07:35:16;;;;;;;5.90;3.75;;;;;;;16.71;100.00;100303.94;4998430;28;20362;-64
2021/07/31 07:37:44;;;;;;;7.72;3.58;;;;;;;17.69;100.00;100286.41;5002118;28;20040;-64
2021/07/31 07:40:13;;;;;;;8.73;3.47;;;;;;;17.91;100.00;100277.91;4996221;28;20034;-64
2021/07/31 07:42:42;;;;;;;6.13;3.17;;;;;;;18.86;100.00;100284.56;4999458;28;20442;-64
2021/07/31 07:45:10;;;;;;;6.82;3.30;;;;;;;17.48;100.00;100293.03;4997434;28;20056;-64
2021/07/31 07:47:38;;;;;;;8.05;3.15;;;;;;;17.46;100.00;100303.22;5000988;28;20053;-64
2021/07/31 07:50:08;;;;;;;7.22;2.92;;;;;;;16.82;100.00;100297.84;4997365;28;20038;-64
2021/07/31 07:52:40;;;;;;;7.05;3.05;;;;;;;16.37;100.00;100307.84;5000454;28;20189;-64
2021/07/31 07:55:08;;;;;;;4.45;3.33;;;;;;;16.34;100.00;100323.41;4998061;28;20042;-64
2021/07/31 07:57:40;;;;;;;7.13;3.28;;;;;;;16.55;100.00;100324.13;4999447;28;20393;-64
2021/07/31 08:00:10;;;;;;;8.13;2.95;;;;;;;16.48;100.00;100329.56;4995638;28;20049;-64
2021/07/31 08:02:38;;;;;;;6.97;3.28;;;;;;;16.58;100.00;100320.19;4994793;28;20045;-64
2021/07/31 08:05:08;;;;;;;8.80;3.83;;;;;;;16.58;100.00;100312.91;4995873;28;20120;-64
2021/07/31 08:07:35;;;;;;;4.60;2.47;;;;;;;16.80;100.00;100318.00;4999206;28;20096;-64
2021/07/31 08:10:05;;;;;;;7.88;2.60;;;;;;;16.72;100.00;100324.47;4993967;28;20445;-64
2021/07/31 08:12:33;;;;;;;6.72;2.47;;;;;;;16.74;100.00;100329.66;4999937;28;20487;-64
2021/07/31 08:15:02;;;;;;;8.73;3.97;;;;;;;16.75;100.00;100325.91;4998972;28;20072;-64
2021/07/31 08:17:31;;;;;;;6.18;2.95;;;;;;;16.75;100.00;100321.34;4999916;28;20069;-63
2021/07/31 08:20:00;;;;;;;6.28;2.80;;;;;;;16.88;100.00;100325.84;4997096;28;20042;-64
2021/07/31 08:22:28;;;;;;;6.90;2.33;;;;;;;18.24;100.00;100303.69;4996861;28;20054;-64
2021/07/31 08:24:56;;;;;;;7.30;2.45;;;;;;;19.27;100.00;100282.09;4997477;28;20054;-64
2021/07/31 08:27:24;;;;;;;4.30;2.35;;;;;;;19.02;100.00;100293.09;5000457;28;20391;-64
2021/07/31 08:29:52;;;;;;;6.10;2.60;;;;;;;18.77;100.00;100296.78;4999920;28;20050;-64
2021/07/31 08:32:20;;;;;;;6.40;3.20;;;;;;;18.29;100.00;100300.34;5003538;28;20046;-63
2021/07/31 08:34:50;;;;;;;9.70;2.88;;;;;;;17.86;100.00;100308.25;4998573;28;20041;-64
2021/07/31 08:37:18;;;;;;;6.80;2.88;;;;;;;18.32;100.00;100305.28;5003420;28;20666;-63
2021/07/31 08:39:46;;;;;;;5.18;2.80;;;;;;;18.60;100.00;100291.19;4997566;28;20046;-63
2021/07/31 08:42:15;;;;;;;7.57;3.25;;;;;;;17.97;100.00;100309.41;5005961;28;20030;-64
2021/07/31 08:44:43;;;;;;;5.43;2.53;;;;;;;17.75;100.00;100305.44;4998279;28;20070;-63
2021/07/31 08:47:13;;;;;;;5.55;2.30;;;;;;;17.82;100.00;100312.44;4999763;28;20053;-64
2021/07/31 08:49:45;;;;;;;5.45;2.67;;;;;;;17.76;100.00;100301.72;4996564;28;20057;-63
2021/07/31 08:52:16;;;;;;;4.28;2.38;;;;;;;17.90;100.00;100303.22;5002514;28;20076;-64
2021/07/31 08:54:44;;;;;;;5.10;2.30;;;;;;;18.39;100.00;100301.44;5001584;28;20042;-64
2021/07/31 08:57:11;;;;;;;3.63;2.35;;;;;;;17.71;100.00;100311.31;5000390;28;20108;-64
2021/07/31 08:59:39;;;;;;;5.13;2.08;;;;;;;18.07;100.00;100303.47;4993444;28;20053;-64
2021/07/31 09:02:08;;;;;;;3.65;2.40;;;;;;;17.80;100.00;100311.00;4999650;28;20060;-64
2021/07/31 09:04:43;;;;;;;3.42;2.38;;;;;;;18.58;100.00;100315.75;5000388;28;20042;-64
2021/07/31 09:07:15;;;;;;;4.28;2.67;;;;;;;18.55;100.00;100301.88;4998972;28;20054;-64
2021/07/31 09:09:43;;;;;;;6.85;2.83;;;;;;;18.30;100.00;100301.97;4996917;28;20041;-64
2021/07/31 09:12:12;;;;;;;7.03;2.70;;;;;;;18.67;100.00;100315.41;5000401;28;20429;-64
2021/07/31 09:14:45;;;;;;;4.00;2.25;;;;;;;18.79;100.00;100310.06;5000727;28;20065;-64
2021/07/31 09:17:25;;;;;;;4.57;2.42;;;;;;;18.43;100.00;100307.22;5002826;28;20053;-63
2021/07/31 09:19:53;;;;;;;2.55;2.22;;;;;;;18.70;100.00;100306.88;5003159;28;20345;-64
2021/07/31 09:22:23;;;;;;;4.97;3.08;;;;;;;18.50;100.00;100297.16;5004840;28;20426;-64
2021/07/31 09:25:10;;;;;;;2.97;2.30;;;;;;;18.51;100.00;100311.47;5001895;28;20048;-64
2021/07/31 09:27:38;;;;;;;4.95;2.47;;;;;;;18.88;100.00;100314.97;5002399;28;20049;-64
2021/07/31 09:30:07;;;;;;;6.93;2.33;;;;;;;19.53;100.00;100312.47;5002870;28;20049;-64
2021/07/31 09:32:40;;;;;;;4.72;2.58;;;;;;;19.16;100.00;100304.56;5007811;28;20056;-64
2021/07/31 09:35:21;;;;;;;4.60;2.05;;;;;;;19.45;100.00;100300.13;5005277;28;20442;-64
2021/07/31 09:37:53;;;;;;;5.00;3.88;;;;;;;19.82;100.00;100316.16;5000527;28;20042;-64
2021/07/31 09:40:29;;;;;;;5.97;2.13;;;;;;;19.83;100.00;100306.16;5001102;28;20042;-64
2021/07/31 09:43:13;;;;;;;4.88;2.10;;;;;;;19.19;100.00;100309.50;4996616;28;20050;-64
2021/07/31 09:45:41;;;;;;;4.10;2.67;;;;;;;19.38;100.00;100318.38;5000637;28;20039;-64
2021/07/31 09:48:09;;;;;;;4.70;2.30;;;;;;;18.63;100.00;100323.19;4999997;28;20053;-64
2021/07/31 09:50:38;;;;;;;4.57;2.25;;;;;;;18.76;100.00;100323.00;4998075;28;20046;-64
2021/07/31 09:53:10;;;;;;;4.10;2.33;;;;;;;19.21;100.00;100313.63;5000732;28;20050;-64
2021/07/31 09:55:44;;;;;;;4.00;2.55;;;;;;;19.37;100.00;100312.13;4997126;28;20038;-64
2021/07/31 09:58:14;;;;;;;4.97;2.63;;;;;;;18.80;100.00;100311.69;4997304;28;20410;-63
2021/07/31 10:00:44;;;;;;;2.90;2.30;;;;;;;19.40;100.00;100316.25;5003023;28;20038;-63
2021/07/31 10:03:12;;;;;;;6.47;2.70;;;;;;;20.00;100.00;100311.66;5002308;28;20050;-64
2021/07/31 10:05:42;;;;;;;6.85;2.58;;;;;;;20.24;100.00;100318.72;5002749;28;20666;-64
2021/07/31 10:08:31;;;;;;;3.38;2.22;;;;;;;20.20;100.00;100316.69;5002898;28;20331;-64
2021/07/31 10:10:59;;;;;;;4.15;2.65;;;;;;;20.02;100.00;100313.09;5003373;28;20048;-63
2021/07/31 10:13:28;;;;;;;4.53;2.45;;;;;;;20.06;100.00;100321.53;5002585;28;20053;-64
2021/07/31 10:15:56;;;;;;;3.55;2.47;;;;;;;20.16;100.00;100329.91;5015875;28;20073;-63
2021/07/31 10:18:26;;;;;;;4.60;2.20;;;;;;;19.93;100.00;100311.78;5000073;28;20070;-64
2021/07/31 10:20:54;;;;;;;5.97;2.47;;;;;;;19.39;100.00;100309.16;4998550;28;20058;-64
2021/07/31 10:23:52;;;;;;;4.35;2.40;;;;;;;19.36;100.00;100306.94;4999732;28;20045;-64
2021/07/31 10:26:21;;;;;;;3.75;1.83;;;;;;;19.76;100.00;100317.06;4995053;28;20153;-64
2021/07/31 10:28:49;;;;;;;4.43;2.40;;;;;;;20.03;100.00;100313.88;4996993;28;20072;-64
2021/07/31 10:31:33;;;;;;;2.97;1.90;;;;;;;21.18;100.00;100322.09;4999624;28;20053;-64
2021/07/31 10:34:01;;;;;;;3.72;2.55;;;;;;;21.42;100.00;100330.91;4999746;28;20434;-64
2021/07/31 10:36:30;;;;;;;4.88;1.85;;;;;;;21.46;100.00;100326.63;5001167;28;20515;-64
2021/07/31 10:38:59;;;;;;;3.35;2.42;;;;;;;21.45;100.00;100324.16;4996812;28;20097;-64
2021/07/31 10:41:56;;;;;;;3.05;2.20;;;;;;;21.78;100.00;100317.91;5001231;28;20109;-65
2021/07/31 10:44:24;;;;;;;4.28;2.47;;;;;;;21.10;100.00;100315.16;4997681;28;20074;-61
2021/07/31 10:47:40;;;;;;;4.45;2.55;;;;;;;21.84;100.00;100314.19;4997793;28;20228;-64
2021/07/31 10:50:36;;;;;;;4.43;2.38;;;;;;;19.63;100.00;100303.78;4991391;28;20049;-64
2021/07/31 10:53:05;;;;;;;3.83;2.35;;;;;;;18.95;100.00;100314.84;5001041;28;20048;-64
2021/07/31 10:56:00;;;;;;;3.25;2.10;;;;;;;19.14;100.00;100312.06;4997972;28;20041;-63
2021/07/31 10:58:31;;;;;;;4.23;2.60;;;;;;;18.72;100.00;100308.28;4998085;28;20042;-64
2021/07/31 11:01:21;;;;;;;2.60;2.08;;;;;;;19.08;100.00;100313.81;5001196;28;20716;-64
2021/07/31 11:03:51;;;;;;;3.20;2.13;;;;;;;19.15;100.00;100317.28;4990835;28;20066;-64
2021/07/31 11:06:19;;;;;;;3.38;2.00;;;;;;;18.89;100.00;100308.47;4999656;28;20469;-63
2021/07/31 11:09:15;;;;;;;3.22;2.00;;;;;;;19.69;100.00;100314.50;4998148;28;20047;-63
2021/07/31 11:11:43;;;;;;;2.40;2.20;;;;;;;19.18;100.00;100314.09;4988176;28;20456;-63
2021/07/31 11:14:12;;;;;;;3.08;2.00;;;;;;;19.49;100.00;100320.25;4999339;28;20369;-63
2021/07/31 11:16:40;;;;;;;3.47;2.30;;;;;;;19.64;100.00;100317.06;5001883;28;20385;-64
2021/07/31 11:19:08;;;;;;;5.30;2.17;;;;;;;20.59;100.00;100315.03;4997928;28;20068;-64
2021/07/31 11:21:38;;;;;;;2.55;2.13;;;;;;;20.55;100.00;100322.00;5006336;28;20038;-64
2021/07/31 11:24:07;;;;;;;3.40;1.88;;;;;;;19.77;100.00;100322.28;4999730;28;20103;-64
2021/07/31 11:26:38;;;;;;;5.97;2.17;;;;;;;19.59;100.00;100325.06;5004381;28;20050;-63